sensor_id;sensor_type;location;lat;lon;timestamp;temperature;humidity
8093;DHT22;4089;52.420;13.334;2023-10-09T00:02:10;11.30;99.90
8093;DHT22;4089;52.420;13.334;2023-10-09T00:04:38;11.30;99.90
8093;DHT22;4089;52.420;13.334;2023-10-09T00:07:09;11.20;99.90
8093;DHT22;4089;52.420;13.334;2023-10-09T00:09:38;11.30;99.90
8093;DHT22;4089;52.420;13.334;2023-10-09T00:12:16;11.20;99.90
8093;DHT22;4089;52.420;13.334;2023-10-09T00:14:43;11.30;99.90
8093;DHT22;4089;52.420;13.334;2023-10-09T00:17:18;11.30;99.90
8093;DHT22;4089;52.420;13.334;2023-10-09T00:19:49;11.30;99.90
8093;DHT22;4089;52.420;13.334;2023-10-09T00:22:19;11.30;99.90
8093;DHT22;4089;52.420;13.334;2023-10-09T00:24:53;11.30;99.90
8093;DHT22;4089;52.420;13.334;2023-10-09T00:27:43;11.20;99.90
8093;DHT22;4089;52.420;13.334;2023-10-09T00:30:12;11.20;99.90
8093;DHT22;4089;52.420;13.334;2023-10-09T00:32:42;11.10;99.90
8093;DHT22;4089;52.420;13.334;2023-10-09T00:35:18;11.10;99.90
8093;DHT22;4089;52.420;13.334;2023-10-09T00:38:04;11.00;99.90
8093;DHT22;4089;52.420;13.334;2023-10-09T00:40:58;11.10;99.90
8093;DHT22;4089;52.420;13.334;2023-10-09T00:43:33;11.00;99.90
8093;DHT22;4089;52.420;13.334;2023-10-09T00:46:04;11.00;99.90
8093;DHT22;4089;52.420;13.334;2023-10-09T00:48:35;10.90;99.90
8093;DHT22;4089;52.420;13.334;2023-10-09T00:51:08;10.90;99.90
8093;DHT22;4089;52.420;13.334;2023-10-09T00:53:48;10.90;99.90
8093;DHT22;4089;52.420;13.334;2023-10-09T00:56:21;10.80;99.90
8093;DHT22;4089;52.420;13.334;2023-10-09T00:58:57;10.80;99.90
8093;DHT22;4089;52.420;13.334;2023-10-09T01:01:44;10.80;99.90
8093;DHT22;4089;52.420;13.334;2023-10-09T01:04:23;10.80;99.90
8093;DHT22;4089;52.420;13.334;2023-10-09T01:06:52;10.80;99.90
8093;DHT22;4089;52.420;13.334;2023-10-09T01:09:34;10.80;99.90
8093;DHT22;4089;52.420;13.334;2023-10-09T01:12:05;10.80;99.90
8093;DHT22;4089;52.420;13.334;2023-10-09T01:14:32;10.80;99.90
8093;DHT22;4089;52.420;13.334;2023-10-09T01:17:04;10.90;99.90
8093;DHT22;4089;52.420;13.334;2023-10-09T01:19:51;11.00;99.90
8093;DHT22;4089;52.420;13.334;2023-10-09T01:22:22;11.00;99.90
8093;DHT22;4089;52.420;13.334;2023-10-09T01:24:49;11.00;99.90
8093;DHT22;4089;52.420;13.334;2023-10-09T01:27:17;11.00;99.90
8093;DHT22;4089;52.420;13.334;2023-10-09T01:29:44;11.00;99.90
8093;DHT22;4089;52.420;13.334;2023-10-09T01:32:13;10.90;99.90
8093;DHT22;4089;52.420;13.334;2023-10-09T01:34:44;11.00;99.90
8093;DHT22;4089;52.420;13.334;2023-10-09T01:37:16;10.90;99.90
8093;DHT22;4089;52.420;13.334;2023-10-09T01:39:51;10.90;99.90
8093;DHT22;4089;52.420;13.334;2023-10-09T01:42:19;10.90;99.90
8093;DHT22;4089;52.420;13.334;2023-10-09T01:44:56;10.90;99.90
8093;DHT22;4089;52.420;13.334;2023-10-09T01:47:25;11.00;99.90
8093;DHT22;4089;52.420;13.334;2023-10-09T01:49:58;11.00;99.90
8093;DHT22;4089;52.420;13.334;2023-10-09T01:52:25;11.00;99.90
8093;DHT22;4089;52.420;13.334;2023-10-09T01:54:54;10.90;99.90
8093;DHT22;4089;52.420;13.334;2023-10-09T01:57:28;10.90;99.90
8093;DHT22;4089;52.420;13.334;2023-10-09T01:59:56;10.80;99.90
8093;DHT22;4089;52.420;13.334;2023-10-09T02:02:24;10.80;99.90
8093;DHT22;4089;52.420;13.334;2023-10-09T02:05:05;10.80;99.90
8093;DHT22;4089;52.420;13.334;2023-10-09T02:07:36;10.90;99.90
8093;DHT22;4089;52.420;13.334;2023-10-09T02:10:22;10.80;99.90
8093;DHT22;4089;52.420;13.334;2023-10-09T02:12:52;10.80;99.90
8093;DHT22;4089;52.420;13.334;2023-10-09T02:15:27;10.70;99.90
8093;DHT22;4089;52.420;13.334;2023-10-09T02:18:23;10.80;99.90
8093;DHT22;4089;52.420;13.334;2023-10-09T02:23:30;10.80;99.90
8093;DHT22;4089;52.420;13.334;2023-10-09T02:26:09;10.70;99.90
8093;DHT22;4089;52.420;13.334;2023-10-09T02:28:44;10.70;99.90
8093;DHT22;4089;52.420;13.334;2023-10-09T02:31:12;10.70;99.90
8093;DHT22;4089;52.420;13.334;2023-10-09T02:33:39;10.70;99.90
8093;DHT22;4089;52.420;13.334;2023-10-09T02:36:06;10.80;99.90
8093;DHT22;4089;52.420;13.334;2023-10-09T02:38:34;10.80;99.90
8093;DHT22;4089;52.420;13.334;2023-10-09T02:41:02;10.70;99.90
8093;DHT22;4089;52.420;13.334;2023-10-09T02:43:33;10.80;99.90
8093;DHT22;4089;52.420;13.334;2023-10-09T02:46:18;10.80;99.90
8093;DHT22;4089;52.420;13.334;2023-10-09T02:48:49;10.70;99.90
8093;DHT22;4089;52.420;13.334;2023-10-09T02:51:24;10.70;99.90
8093;DHT22;4089;52.420;13.334;2023-10-09T02:53:58;10.70;99.90
8093;DHT22;4089;52.420;13.334;2023-10-09T02:56:26;10.80;99.90
8093;DHT22;4089;52.420;13.334;2023-10-09T02:59:05;10.90;99.90
8093;DHT22;4089;52.420;13.334;2023-10-09T03:01:35;11.00;99.90
8093;DHT22;4089;52.420;13.334;2023-10-09T03:04:07;10.90;99.90
8093;DHT22;4089;52.420;13.334;2023-10-09T03:06:37;10.80;99.90
8093;DHT22;4089;52.420;13.334;2023-10-09T03:09:20;10.80;99.90
8093;DHT22;4089;52.420;13.334;2023-10-09T03:12:02;10.70;99.90
8093;DHT22;4089;52.420;13.334;2023-10-09T03:14:34;10.70;99.90
8093;DHT22;4089;52.420;13.334;2023-10-09T03:17:08;10.70;99.90
8093;DHT22;4089;52.420;13.334;2023-10-09T03:19:41;10.70;99.90
8093;DHT22;4089;52.420;13.334;2023-10-09T03:22:10;10.70;99.90
8093;DHT22;4089;52.420;13.334;2023-10-09T03:24:39;10.70;99.90
8093;DHT22;4089;52.420;13.334;2023-10-09T03:27:16;10.70;99.90
8093;DHT22;4089;52.420;13.334;2023-10-09T03:29:43;10.70;99.90
8093;DHT22;4089;52.420;13.334;2023-10-09T03:32:16;10.70;99.90
8093;DHT22;4089;52.420;13.334;2023-10-09T03:34:43;10.70;99.90
8093;DHT22;4089;52.420;13.334;2023-10-09T03:37:11;10.80;99.90
8093;DHT22;4089;52.420;13.334;2023-10-09T03:39:49;10.80;99.90
8093;DHT22;4089;52.420;13.334;2023-10-09T03:42:18;10.70;99.90
8093;DHT22;4089;52.420;13.334;2023-10-09T03:44:49;10.70;99.90
8093;DHT22;4089;52.420;13.334;2023-10-09T03:47:20;10.70;99.90
8093;DHT22;4089;52.420;13.334;2023-10-09T03:49:51;10.70;99.90
8093;DHT22;4089;52.420;13.334;2023-10-09T03:52:20;10.80;99.90
8093;DHT22;4089;52.420;13.334;2023-10-09T03:54:52;10.80;99.90
8093;DHT22;4089;52.420;13.334;2023-10-09T03:57:19;10.80;99.90
8093;DHT22;4089;52.420;13.334;2023-10-09T03:59:47;10.90;99.90
8093;DHT22;4089;52.420;13.334;2023-10-09T04:02:14;10.80;99.90
8093;DHT22;4089;52.420;13.334;2023-10-09T04:04:42;10.70;99.90
8093;DHT22;4089;52.420;13.334;2023-10-09T04:07:15;10.70;99.90
8093;DHT22;4089;52.420;13.334;2023-10-09T04:09:45;10.70;99.90
8093;DHT22;4089;52.420;13.334;2023-10-09T04:12:15;10.70;99.90
8093;DHT22;4089;52.420;13.334;2023-10-09T04:14:48;10.60;99.90
8093;DHT22;4089;52.420;13.334;2023-10-09T04:17:22;10.70;99.90
8093;DHT22;4089;52.420;13.334;2023-10-09T04:19:51;10.70;99.90
8093;DHT22;4089;52.420;13.334;2023-10-09T04:22:38;10.60;99.90
8093;DHT22;4089;52.420;13.334;2023-10-09T04:25:19;10.60;99.90
8093;DHT22;4089;52.420;13.334;2023-10-09T04:27:56;10.50;99.90
8093;DHT22;4089;52.420;13.334;2023-10-09T04:30:37;10.50;99.90
8093;DHT22;4089;52.420;13.334;2023-10-09T04:33:07;10.50;99.90
8093;DHT22;4089;52.420;13.334;2023-10-09T04:35:38;10.50;99.90
8093;DHT22;4089;52.420;13.334;2023-10-09T04:38:06;10.40;99.90
8093;DHT22;4089;52.420;13.334;2023-10-09T04:40:33;10.50;99.90
8093;DHT22;4089;52.420;13.334;2023-10-09T04:43:18;10.60;99.90
8093;DHT22;4089;52.420;13.334;2023-10-09T04:45:48;10.50;99.90
8093;DHT22;4089;52.420;13.334;2023-10-09T04:48:36;10.50;99.90
8093;DHT22;4089;52.420;13.334;2023-10-09T04:51:06;10.50;99.90
8093;DHT22;4089;52.420;13.334;2023-10-09T04:53:48;10.50;99.90
8093;DHT22;4089;52.420;13.334;2023-10-09T04:56:41;10.50;99.90
8093;DHT22;4089;52.420;13.334;2023-10-09T04:59:20;10.50;99.90
8093;DHT22;4089;52.420;13.334;2023-10-09T05:01:52;10.50;99.90
8093;DHT22;4089;52.420;13.334;2023-10-09T05:04:26;10.40;99.90
8093;DHT22;4089;52.420;13.334;2023-10-09T05:07:07;10.50;99.90
8093;DHT22;4089;52.420;13.334;2023-10-09T05:10:12;10.40;99.90
8093;DHT22;4089;52.420;13.334;2023-10-09T05:12:44;10.50;99.90
8093;DHT22;4089;52.420;13.334;2023-10-09T05:15:14;10.50;99.90
8093;DHT22;4089;52.420;13.334;2023-10-09T05:17:41;10.50;99.90
8093;DHT22;4089;52.420;13.334;2023-10-09T05:20:18;10.40;99.90
8093;DHT22;4089;52.420;13.334;2023-10-09T05:22:54;10.40;99.90
8093;DHT22;4089;52.420;13.334;2023-10-09T05:25:25;10.40;99.90
8093;DHT22;4089;52.420;13.334;2023-10-09T05:28:11;10.40;99.90
8093;DHT22;4089;52.420;13.334;2023-10-09T05:30:59;10.40;99.90
8093;DHT22;4089;52.420;13.334;2023-10-09T05:33:38;10.40;99.90
8093;DHT22;4089;52.420;13.334;2023-10-09T05:36:06;10.40;99.90
8093;DHT22;4089;52.420;13.334;2023-10-09T05:38:45;10.50;99.90
8093;DHT22;4089;52.420;13.334;2023-10-09T05:41:27;10.40;99.90
8093;DHT22;4089;52.420;13.334;2023-10-09T05:43:57;10.40;99.90
8093;DHT22;4089;52.420;13.334;2023-10-09T05:46:50;10.40;99.90
8093;DHT22;4089;52.420;13.334;2023-10-09T05:49:36;10.40;99.90
8093;DHT22;4089;52.420;13.334;2023-10-09T05:52:13;10.40;99.90
8093;DHT22;4089;52.420;13.334;2023-10-09T05:54:59;10.40;99.90
8093;DHT22;4089;52.420;13.334;2023-10-09T05:57:55;10.40;99.90
8093;DHT22;4089;52.420;13.334;2023-10-09T06:00:41;10.40;99.90
8093;DHT22;4089;52.420;13.334;2023-10-09T06:03:27;10.40;99.90
8093;DHT22;4089;52.420;13.334;2023-10-09T06:06:12;10.40;99.90
8093;DHT22;4089;52.420;13.334;2023-10-09T06:09:02;10.40;99.90
8093;DHT22;4089;52.420;13.334;2023-10-09T06:11:44;10.40;99.90
8093;DHT22;4089;52.420;13.334;2023-10-09T06:14:24;10.50;99.90
8093;DHT22;4089;52.420;13.334;2023-10-09T06:16:58;10.50;99.90
8093;DHT22;4089;52.420;13.334;2023-10-09T06:19:28;10.50;99.90
8093;DHT22;4089;52.420;13.334;2023-10-09T06:21:56;10.60;99.90
8093;DHT22;4089;52.420;13.334;2023-10-09T06:24:41;10.50;99.90
8093;DHT22;4089;52.420;13.334;2023-10-09T06:27:21;10.50;99.90
8093;DHT22;4089;52.420;13.334;2023-10-09T06:29:58;10.50;99.90
8093;DHT22;4089;52.420;13.334;2023-10-09T06:32:41;10.60;99.90
8093;DHT22;4089;52.420;13.334;2023-10-09T06:35:23;10.50;99.90
8093;DHT22;4089;52.420;13.334;2023-10-09T06:38:00;10.50;99.90
8093;DHT22;4089;52.420;13.334;2023-10-09T06:40:39;10.50;99.90
8093;DHT22;4089;52.420;13.334;2023-10-09T06:43:22;10.60;99.90
8093;DHT22;4089;52.420;13.334;2023-10-09T06:45:53;10.70;99.90
8093;DHT22;4089;52.420;13.334;2023-10-09T06:48:38;10.80;99.90
8093;DHT22;4089;52.420;13.334;2023-10-09T06:51:10;10.70;99.90
8093;DHT22;4089;52.420;13.334;2023-10-09T06:54:07;10.80;99.90
8093;DHT22;4089;52.420;13.334;2023-10-09T06:56:36;10.80;99.90
8093;DHT22;4089;52.420;13.334;2023-10-09T06:59:05;10.80;99.90
8093;DHT22;4089;52.420;13.334;2023-10-09T07:01:49;10.80;99.90
8093;DHT22;4089;52.420;13.334;2023-10-09T07:04:36;10.80;99.90
8093;DHT22;4089;52.420;13.334;2023-10-09T07:07:03;10.70;99.90
8093;DHT22;4089;52.420;13.334;2023-10-09T07:09:52;10.80;99.90
8093;DHT22;4089;52.420;13.334;2023-10-09T07:12:57;10.80;99.90
8093;DHT22;4089;52.420;13.334;2023-10-09T07:15:23;10.90;99.90
8093;DHT22;4089;52.420;13.334;2023-10-09T07:18:13;10.90;99.90
8093;DHT22;4089;52.420;13.334;2023-10-09T07:20:50;10.90;99.90
8093;DHT22;4089;52.420;13.334;2023-10-09T07:23:26;10.90;99.90
8093;DHT22;4089;52.420;13.334;2023-10-09T07:26:04;11.00;99.90
8093;DHT22;4089;52.420;13.334;2023-10-09T07:28:50;11.10;99.90
8093;DHT22;4089;52.420;13.334;2023-10-09T07:31:29;11.20;99.90
8093;DHT22;4089;52.420;13.334;2023-10-09T07:34:06;11.20;99.90
8093;DHT22;4089;52.420;13.334;2023-10-09T07:36:53;11.20;99.90
8093;DHT22;4089;52.420;13.334;2023-10-09T07:39:23;11.30;99.90
8093;DHT22;4089;52.420;13.334;2023-10-09T07:41:50;11.40;99.90
8093;DHT22;4089;52.420;13.334;2023-10-09T07:44:28;11.50;99.90
8093;DHT22;4089;52.420;13.334;2023-10-09T07:47:05;11.50;99.90
8093;DHT22;4089;52.420;13.334;2023-10-09T07:49:46;11.50;99.90
8093;DHT22;4089;52.420;13.334;2023-10-09T07:52:21;11.60;99.90
8093;DHT22;4089;52.420;13.334;2023-10-09T07:54:49;11.60;99.90
8093;DHT22;4089;52.420;13.334;2023-10-09T07:57:29;11.60;99.90
8093;DHT22;4089;52.420;13.334;2023-10-09T08:00:06;11.60;99.90
8093;DHT22;4089;52.420;13.334;2023-10-09T08:02:59;11.60;99.90
8093;DHT22;4089;52.420;13.334;2023-10-09T08:05:32;11.60;99.90
8093;DHT22;4089;52.420;13.334;2023-10-09T08:08:11;11.60;99.90
8093;DHT22;4089;52.420;13.334;2023-10-09T08:11:06;11.70;99.90
8093;DHT22;4089;52.420;13.334;2023-10-09T08:13:52;11.80;99.90
8093;DHT22;4089;52.420;13.334;2023-10-09T08:16:35;11.80;99.90
8093;DHT22;4089;52.420;13.334;2023-10-09T08:19:05;11.70;99.90
8093;DHT22;4089;52.420;13.334;2023-10-09T08:21:59;11.70;99.90
8093;DHT22;4089;52.420;13.334;2023-10-09T08:24:45;11.70;99.90
8093;DHT22;4089;52.420;13.334;2023-10-09T08:27:29;11.70;99.90
8093;DHT22;4089;52.420;13.334;2023-10-09T08:29:57;11.70;99.90
8093;DHT22;4089;52.420;13.334;2023-10-09T08:32:48;11.70;99.90
8093;DHT22;4089;52.420;13.334;2023-10-09T08:35:36;11.70;99.90
8093;DHT22;4089;52.420;13.334;2023-10-09T08:38:17;11.70;99.90
8093;DHT22;4089;52.420;13.334;2023-10-09T08:40:51;11.70;99.90
8093;DHT22;4089;52.420;13.334;2023-10-09T08:43:25;11.80;99.90
8093;DHT22;4089;52.420;13.334;2023-10-09T08:45:59;11.80;99.90
8093;DHT22;4089;52.420;13.334;2023-10-09T08:48:30;11.80;99.90
8093;DHT22;4089;52.420;13.334;2023-10-09T08:50:57;11.80;99.90
8093;DHT22;4089;52.420;13.334;2023-10-09T08:53:25;11.80;99.90
8093;DHT22;4089;52.420;13.334;2023-10-09T08:55:55;11.80;99.90
8093;DHT22;4089;52.420;13.334;2023-10-09T08:58:24;11.80;99.90
8093;DHT22;4089;52.420;13.334;2023-10-09T09:00:53;11.90;99.90
8093;DHT22;4089;52.420;13.334;2023-10-09T09:03:22;11.80;99.90
8093;DHT22;4089;52.420;13.334;2023-10-09T09:06:00;11.80;99.90
8093;DHT22;4089;52.420;13.334;2023-10-09T09:08:33;11.70;99.90
8093;DHT22;4089;52.420;13.334;2023-10-09T09:16:20;11.60;99.90
8093;DHT22;4089;52.420;13.334;2023-10-09T09:18:54;11.60;99.90
8093;DHT22;4089;52.420;13.334;2023-10-09T09:21:28;11.60;99.90
8093;DHT22;4089;52.420;13.334;2023-10-09T09:24:00;11.60;99.90
8093;DHT22;4089;52.420;13.334;2023-10-09T09:26:36;11.70;99.90
8093;DHT22;4089;52.420;13.334;2023-10-09T09:29:05;11.80;99.90
8093;DHT22;4089;52.420;13.334;2023-10-09T09:31:33;11.80;99.90
8093;DHT22;4089;52.420;13.334;2023-10-09T09:34:08;11.70;99.90
8093;DHT22;4089;52.420;13.334;2023-10-09T09:36:57;11.60;99.90
8093;DHT22;4089;52.420;13.334;2023-10-09T09:39:27;11.70;99.90
8093;DHT22;4089;52.420;13.334;2023-10-09T09:42:14;11.80;99.90
8093;DHT22;4089;52.420;13.334;2023-10-09T09:44:42;11.80;99.90
8093;DHT22;4089;52.420;13.334;2023-10-09T09:47:13;11.80;99.90
8093;DHT22;4089;52.420;13.334;2023-10-09T09:49:51;11.80;99.90
8093;DHT22;4089;52.420;13.334;2023-10-09T09:52:29;11.80;99.90
8093;DHT22;4089;52.420;13.334;2023-10-09T09:54:56;11.90;99.90
8093;DHT22;4089;52.420;13.334;2023-10-09T09:57:28;11.80;99.90
8093;DHT22;4089;52.420;13.334;2023-10-09T09:59:57;11.70;99.90
8093;DHT22;4089;52.420;13.334;2023-10-09T10:02:29;11.70;99.90
8093;DHT22;4089;52.420;13.334;2023-10-09T10:05:16;11.70;99.90
8093;DHT22;4089;52.420;13.334;2023-10-09T10:07:43;11.80;99.90
8093;DHT22;4089;52.420;13.334;2023-10-09T10:10:37;11.90;99.90
8093;DHT22;4089;52.420;13.334;2023-10-09T10:13:05;11.90;99.90
8093;DHT22;4089;52.420;13.334;2023-10-09T10:16:12;11.90;99.90
8093;DHT22;4089;52.420;13.334;2023-10-09T10:18:54;11.90;99.90
8093;DHT22;4089;52.420;13.334;2023-10-09T10:21:27;12.00;99.90
8093;DHT22;4089;52.420;13.334;2023-10-09T10:23:59;11.90;99.90
8093;DHT22;4089;52.420;13.334;2023-10-09T10:32:53;12.00;99.90
8093;DHT22;4089;52.420;13.334;2023-10-09T10:35:21;12.00;99.90
8093;DHT22;4089;52.420;13.334;2023-10-09T10:38:33;12.10;99.90
8093;DHT22;4089;52.420;13.334;2023-10-09T10:43:45;12.00;99.90
8093;DHT22;4089;52.420;13.334;2023-10-09T10:46:23;12.10;99.90
8093;DHT22;4089;52.420;13.334;2023-10-09T10:48:52;12.10;99.90
8093;DHT22;4089;52.420;13.334;2023-10-09T10:51:36;12.10;99.90
8093;DHT22;4089;52.420;13.334;2023-10-09T10:54:09;12.10;99.90
8093;DHT22;4089;52.420;13.334;2023-10-09T10:56:54;12.10;99.90
8093;DHT22;4089;52.420;13.334;2023-10-09T10:59:24;12.20;99.90
8093;DHT22;4089;52.420;13.334;2023-10-09T11:01:56;12.20;99.90
8093;DHT22;4089;52.420;13.334;2023-10-09T11:04:29;12.30;99.90
8093;DHT22;4089;52.420;13.334;2023-10-09T11:06:58;12.40;99.90
8093;DHT22;4089;52.420;13.334;2023-10-09T11:09:56;12.50;99.90
8093;DHT22;4089;52.420;13.334;2023-10-09T11:12:27;12.50;99.90
8093;DHT22;4089;52.420;13.334;2023-10-09T11:15:09;12.50;99.90
8093;DHT22;4089;52.420;13.334;2023-10-09T11:18:01;12.50;99.90
8093;DHT22;4089;52.420;13.334;2023-10-09T11:20:37;12.50;99.90
8093;DHT22;4089;52.420;13.334;2023-10-09T11:23:06;12.40;99.90
8093;DHT22;4089;52.420;13.334;2023-10-09T11:25:42;12.50;99.90
8093;DHT22;4089;52.420;13.334;2023-10-09T11:28:21;12.50;99.90
8093;DHT22;4089;52.420;13.334;2023-10-09T11:31:11;12.60;99.90
8093;DHT22;4089;52.420;13.334;2023-10-09T11:33:57;12.70;99.90
8093;DHT22;4089;52.420;13.334;2023-10-09T11:36:28;12.80;99.90
8093;DHT22;4089;52.420;13.334;2023-10-09T11:39:02;13.00;99.90
8093;DHT22;4089;52.420;13.334;2023-10-09T11:41:45;13.10;99.90
8093;DHT22;4089;52.420;13.334;2023-10-09T11:44:16;13.10;99.90
8093;DHT22;4089;52.420;13.334;2023-10-09T11:46:59;13.10;99.90
8093;DHT22;4089;52.420;13.334;2023-10-09T11:49:56;13.20;99.90
8093;DHT22;4089;52.420;13.334;2023-10-09T11:52:55;13.20;99.90
8093;DHT22;4089;52.420;13.334;2023-10-09T11:55:23;12.90;99.90
8093;DHT22;4089;52.420;13.334;2023-10-09T11:57:51;12.60;99.90
8093;DHT22;4089;52.420;13.334;2023-10-09T12:00:18;12.50;99.90
8093;DHT22;4089;52.420;13.334;2023-10-09T12:02:56;12.50;99.90
8093;DHT22;4089;52.420;13.334;2023-10-09T12:05:23;12.60;99.90
8093;DHT22;4089;52.420;13.334;2023-10-09T12:07:54;12.60;99.90
8093;DHT22;4089;52.420;13.334;2023-10-09T12:10:28;12.70;99.90
8093;DHT22;4089;52.420;13.334;2023-10-09T12:12:56;12.80;99.90
8093;DHT22;4089;52.420;13.334;2023-10-09T12:15:26;12.80;99.90
8093;DHT22;4089;52.420;13.334;2023-10-09T12:18:07;12.60;99.90
8093;DHT22;4089;52.420;13.334;2023-10-09T12:20:44;12.60;99.90
8093;DHT22;4089;52.420;13.334;2023-10-09T12:23:19;12.50;99.90
8093;DHT22;4089;52.420;13.334;2023-10-09T12:25:50;12.50;99.90
8093;DHT22;4089;52.420;13.334;2023-10-09T12:28:17;12.40;99.90
8093;DHT22;4089;52.420;13.334;2023-10-09T12:30:47;12.40;99.90
8093;DHT22;4089;52.420;13.334;2023-10-09T12:33:18;12.40;99.90
8093;DHT22;4089;52.420;13.334;2023-10-09T12:35:47;12.50;99.90
8093;DHT22;4089;52.420;13.334;2023-10-09T12:38:17;12.50;99.90
8093;DHT22;4089;52.420;13.334;2023-10-09T12:40:49;12.50;99.90
8093;DHT22;4089;52.420;13.334;2023-10-09T12:43:20;12.50;99.90
8093;DHT22;4089;52.420;13.334;2023-10-09T12:45:48;12.50;99.90
8093;DHT22;4089;52.420;13.334;2023-10-09T12:48:15;12.50;99.90
8093;DHT22;4089;52.420;13.334;2023-10-09T12:50:42;12.60;99.90
8093;DHT22;4089;52.420;13.334;2023-10-09T12:53:11;12.70;99.90
8093;DHT22;4089;52.420;13.334;2023-10-09T12:55:44;12.60;99.90
8093;DHT22;4089;52.420;13.334;2023-10-09T12:58:11;12.70;99.90
8093;DHT22;4089;52.420;13.334;2023-10-09T13:00:43;12.70;99.90
8093;DHT22;4089;52.420;13.334;2023-10-09T13:03:17;12.60;99.90
8093;DHT22;4089;52.420;13.334;2023-10-09T13:05:50;12.70;99.90
8093;DHT22;4089;52.420;13.334;2023-10-09T13:08:26;12.70;99.90
8093;DHT22;4089;52.420;13.334;2023-10-09T13:11:04;12.60;99.90
8093;DHT22;4089;52.420;13.334;2023-10-09T13:13:39;12.60;99.90
8093;DHT22;4089;52.420;13.334;2023-10-09T13:16:15;12.50;99.90
8093;DHT22;4089;52.420;13.334;2023-10-09T13:19:03;12.50;99.90
8093;DHT22;4089;52.420;13.334;2023-10-09T13:21:38;12.60;99.90
8093;DHT22;4089;52.420;13.334;2023-10-09T13:24:09;12.60;99.90
8093;DHT22;4089;52.420;13.334;2023-10-09T13:26:46;12.70;99.90
8093;DHT22;4089;52.420;13.334;2023-10-09T13:29:18;12.60;99.90
8093;DHT22;4089;52.420;13.334;2023-10-09T13:31:51;12.60;99.90
8093;DHT22;4089;52.420;13.334;2023-10-09T13:34:24;12.60;99.90
8093;DHT22;4089;52.420;13.334;2023-10-09T13:36:55;12.70;99.90
8093;DHT22;4089;52.420;13.334;2023-10-09T13:39:26;12.90;99.90
8093;DHT22;4089;52.420;13.334;2023-10-09T13:41:55;12.70;99.90
8093;DHT22;4089;52.420;13.334;2023-10-09T13:44:36;12.70;99.90
8093;DHT22;4089;52.420;13.334;2023-10-09T13:47:04;12.60;99.90
8093;DHT22;4089;52.420;13.334;2023-10-09T13:49:47;12.60;99.90
8093;DHT22;4089;52.420;13.334;2023-10-09T13:52:17;12.70;99.90
8093;DHT22;4089;52.420;13.334;2023-10-09T13:54:48;12.80;99.90
8093;DHT22;4089;52.420;13.334;2023-10-09T13:57:16;12.80;99.90
8093;DHT22;4089;52.420;13.334;2023-10-09T13:59:43;12.80;99.90
8093;DHT22;4089;52.420;13.334;2023-10-09T14:02:16;12.70;99.90
8093;DHT22;4089;52.420;13.334;2023-10-09T14:04:46;12.60;99.90
8093;DHT22;4089;52.420;13.334;2023-10-09T14:07:16;12.60;99.90
8093;DHT22;4089;52.420;13.334;2023-10-09T14:09:47;12.70;99.90
8093;DHT22;4089;52.420;13.334;2023-10-09T14:12:34;12.70;99.90
8093;DHT22;4089;52.420;13.334;2023-10-09T14:15:06;12.70;99.90
8093;DHT22;4089;52.420;13.334;2023-10-09T14:17:38;12.70;99.90
8093;DHT22;4089;52.420;13.334;2023-10-09T14:20:09;12.70;99.90
8093;DHT22;4089;52.420;13.334;2023-10-09T14:22:54;12.70;99.90
8093;DHT22;4089;52.420;13.334;2023-10-09T14:25:21;12.70;99.90
8093;DHT22;4089;52.420;13.334;2023-10-09T14:27:48;12.70;99.90
8093;DHT22;4089;52.420;13.334;2023-10-09T14:30:15;12.80;99.90
8093;DHT22;4089;52.420;13.334;2023-10-09T14:32:50;12.70;99.90
8093;DHT22;4089;52.420;13.334;2023-10-09T14:35:23;12.70;99.90
8093;DHT22;4089;52.420;13.334;2023-10-09T14:37:53;12.70;99.90
8093;DHT22;4089;52.420;13.334;2023-10-09T14:40:20;12.70;99.90
8093;DHT22;4089;52.420;13.334;2023-10-09T14:43:09;12.70;99.90
8093;DHT22;4089;52.420;13.334;2023-10-09T14:45:48;12.80;99.90
8093;DHT22;4089;52.420;13.334;2023-10-09T14:48:15;12.70;99.90
8093;DHT22;4089;52.420;13.334;2023-10-09T14:50:49;12.60;99.90
8093;DHT22;4089;52.420;13.334;2023-10-09T14:53:16;12.50;99.90
8093;DHT22;4089;52.420;13.334;2023-10-09T14:55:43;12.60;99.90
8093;DHT22;4089;52.420;13.334;2023-10-09T14:58:13;12.70;99.90
8093;DHT22;4089;52.420;13.334;2023-10-09T15:00:41;12.70;99.90
8093;DHT22;4089;52.420;13.334;2023-10-09T15:03:17;12.70;99.90
8093;DHT22;4089;52.420;13.334;2023-10-09T15:05:46;12.70;99.90
8093;DHT22;4089;52.420;13.334;2023-10-09T15:08:15;12.60;99.90
8093;DHT22;4089;52.420;13.334;2023-10-09T15:10:50;12.50;99.90
8093;DHT22;4089;52.420;13.334;2023-10-09T15:13:18;12.60;99.90
8093;DHT22;4089;52.420;13.334;2023-10-09T15:15:54;12.60;99.90
8093;DHT22;4089;52.420;13.334;2023-10-09T15:18:22;12.60;99.90
8093;DHT22;4089;52.420;13.334;2023-10-09T15:20:49;12.50;99.90
8093;DHT22;4089;52.420;13.334;2023-10-09T15:23:16;12.50;99.90
8093;DHT22;4089;52.420;13.334;2023-10-09T15:25:43;12.40;99.90
8093;DHT22;4089;52.420;13.334;2023-10-09T15:28:12;12.40;99.90
8093;DHT22;4089;52.420;13.334;2023-10-09T15:30:39;12.40;99.90
8093;DHT22;4089;52.420;13.334;2023-10-09T15:33:09;12.50;99.90
8093;DHT22;4089;52.420;13.334;2023-10-09T15:35:37;12.50;99.90
8093;DHT22;4089;52.420;13.334;2023-10-09T15:38:06;12.50;99.90
8093;DHT22;4089;52.420;13.334;2023-10-09T15:40:33;12.40;99.90
8093;DHT22;4089;52.420;13.334;2023-10-09T15:43:01;12.40;99.90
8093;DHT22;4089;52.420;13.334;2023-10-09T15:45:28;12.40;99.90
8093;DHT22;4089;52.420;13.334;2023-10-09T15:47:56;12.30;99.90
8093;DHT22;4089;52.420;13.334;2023-10-09T15:50:23;12.40;99.90
8093;DHT22;4089;52.420;13.334;2023-10-09T15:52:54;12.40;99.90
8093;DHT22;4089;52.420;13.334;2023-10-09T15:55:23;12.50;99.90
8093;DHT22;4089;52.420;13.334;2023-10-09T15:57:53;12.50;99.90
8093;DHT22;4089;52.420;13.334;2023-10-09T16:00:22;12.50;99.90
8093;DHT22;4089;52.420;13.334;2023-10-09T16:02:55;12.50;99.90
8093;DHT22;4089;52.420;13.334;2023-10-09T16:05:25;12.40;99.90
8093;DHT22;4089;52.420;13.334;2023-10-09T16:07:58;12.50;99.90
8093;DHT22;4089;52.420;13.334;2023-10-09T16:10:27;12.40;99.90
8093;DHT22;4089;52.420;13.334;2023-10-09T16:12:54;12.40;99.90
8093;DHT22;4089;52.420;13.334;2023-10-09T16:15:24;12.40;99.90
8093;DHT22;4089;52.420;13.334;2023-10-09T16:17:54;12.30;99.90
8093;DHT22;4089;52.420;13.334;2023-10-09T16:20:33;12.30;99.90
8093;DHT22;4089;52.420;13.334;2023-10-09T16:22:59;12.30;99.90
8093;DHT22;4089;52.420;13.334;2023-10-09T16:25:32;12.20;99.90
8093;DHT22;4089;52.420;13.334;2023-10-09T16:28:02;12.20;99.90
8093;DHT22;4089;52.420;13.334;2023-10-09T16:30:29;12.30;99.90
8093;DHT22;4089;52.420;13.334;2023-10-09T16:32:56;12.20;99.90
8093;DHT22;4089;52.420;13.334;2023-10-09T16:35:26;12.20;99.90
8093;DHT22;4089;52.420;13.334;2023-10-09T16:37:52;12.20;99.90
8093;DHT22;4089;52.420;13.334;2023-10-09T16:40:19;12.20;99.90
8093;DHT22;4089;52.420;13.334;2023-10-09T16:42:48;12.20;99.90
8093;DHT22;4089;52.420;13.334;2023-10-09T16:45:20;12.20;99.90
8093;DHT22;4089;52.420;13.334;2023-10-09T16:47:52;12.20;99.90
8093;DHT22;4089;52.420;13.334;2023-10-09T16:50:21;12.30;99.90